Time;durP1;ratioP1;P1;durP2;ratioP2;P2;SDS_P1;SDS_P2;PMS_P1;PMS_P2;Temp;Humidity;BMP_temperature;BMP_pressure;BME280_temperature;BME280_humidity;BME280_pressure;Samples;Min_cycle;Max_cycle;Signal;HPM_P1;HPM_P2
2022/03/31 00:01:37;;;;;;;52.40;28.38;;;;;;;7.82;85.93;99233.00;5112723;27;20051;-76
2022/03/31 00:04:03;;;;;;;54.95;28.00;;;;;;;7.80;85.94;99227.00;5117713;28;20031;-77
2022/03/31 00:06:28;;;;;;;53.75;28.40;;;;;;;7.80;86.06;99221.47;5083054;27;20019;-77
2022/03/31 00:08:54;;;;;;;51.38;25.80;;;;;;;7.80;85.59;99227.00;5079925;28;20089;-77
2022/03/31 00:11:19;;;;;;;53.33;28.05;;;;;;;7.79;85.55;99217.03;5071552;28;20667;-77
2022/03/31 00:13:45;;;;;;;59.53;28.30;;;;;;;7.74;85.29;99211.59;5116801;28;20035;-76
2022/03/31 00:16:11;;;;;;;56.33;28.25;;;;;;;7.70;85.44;99207.84;5107044;27;20556;-77
2022/03/31 00:18:37;;;;;;;55.22;28.52;;;;;;;7.64;85.40;99206.31;5115193;28;20035;-77
2022/03/31 00:21:03;;;;;;;55.47;27.65;;;;;;;7.68;85.00;99201.78;5110917;27;20034;-77
2022/03/31 00:23:29;;;;;;;52.60;25.98;;;;;;;7.68;84.94;99201.78;5123891;27;20023;-76
2022/03/31 00:25:55;;;;;;;54.85;27.13;;;;;;;7.65;84.98;99201.59;5125421;27;20514;-76
2022/03/31 00:28:21;;;;;;;52.42;27.35;;;;;;;7.60;84.87;99202.50;5124742;27;20051;-76
2022/03/31 00:30:46;;;;;;;56.42;27.02;;;;;;;7.55;84.73;99199.84;5081562;28;20086;-76
2022/03/31 00:33:12;;;;;;;53.25;26.60;;;;;;;7.47;84.99;99195.03;5096031;28;20020;-76
2022/03/31 00:35:37;;;;;;;50.72;26.00;;;;;;;7.42;85.21;99204.25;5110828;27;20031;-76
2022/03/31 00:38:03;;;;;;;48.35;26.15;;;;;;;7.37;85.09;99196.84;5123767;27;20023;-77
2022/03/31 00:40:30;;;;;;;50.60;25.25;;;;;;;7.32;84.94;99196.94;5125016;27;20063;-77
2022/03/31 00:42:57;;;;;;;48.60;25.55;;;;;;;7.32;84.92;99199.72;5112367;28;20042;-77
2022/03/31 00:45:33;;;;;;;51.13;26.20;;;;;;;7.27;84.70;99194.31;5091125;28;20380;-77
2022/03/31 00:47:59;;;;;;;48.60;24.77;;;;;;;7.21;84.57;99184.44;5086070;28;20490;-77
2022/03/31 00:50:26;;;;;;;52.75;25.33;;;;;;;7.15;84.54;99182.91;5130143;27;20106;-77
2022/03/31 00:52:51;;;;;;;50.17;25.17;;;;;;;7.09;84.81;99186.88;5078468;28;20538;-76
2022/03/31 00:55:19;;;;;;;54.33;25.20;;;;;;;7.04;84.94;99176.75;5101571;28;20052;-77
2022/03/31 00:57:45;;;;;;;49.90;25.25;;;;;;;6.97;84.99;99181.03;5113949;28;20383;-77
2022/03/31 01:00:11;;;;;;;48.47;24.77;;;;;;;6.90;84.92;99173.94;5046475;28;20536;-76
2022/03/31 01:02:38;;;;;;;51.60;25.60;;;;;;;6.93;84.70;99184.38;5107224;28;20030;-76
2022/03/31 01:05:04;;;;;;;53.65;24.92;;;;;;;6.92;84.75;99173.66;5058063;28;20375;-76
2022/03/31 01:07:30;;;;;;;49.63;25.80;;;;;;;6.80;85.01;99171.38;5125543;28;20027;-76
2022/03/31 01:09:58;;;;;;;49.78;25.92;;;;;;;6.76;85.35;99170.34;5085656;28;20104;-77
2022/03/31 01:12:24;;;;;;;50.60;25.95;;;;;;;6.70;85.29;99169.59;5077998;28;20020;-77
2022/03/31 01:15:14;;;;;;;48.42;25.02;;;;;;;6.68;85.14;99155.28;5079567;28;20081;-77
2022/03/31 01:17:41;;;;;;;51.08;26.00;;;;;;;6.63;85.09;99158.16;5109763;28;20036;-76
2022/03/31 01:20:08;;;;;;;53.75;25.65;;;;;;;6.60;85.32;99152.38;5087420;28;20039;-77
2022/03/31 01:22:34;;;;;;;50.45;25.08;;;;;;;6.59;85.10;99148.00;5090992;28;20071;-77
2022/03/31 01:25:00;;;;;;;49.33;25.42;;;;;;;6.56;85.26;99149.41;5081189;28;20016;-77
2022/03/31 01:27:26;;;;;;;48.90;25.90;;;;;;;6.53;85.23;99144.50;5109116;28;20091;-77
2022/03/31 01:29:52;;;;;;;47.80;24.30;;;;;;;6.52;85.38;99147.56;5064152;28;20090;-77
2022/03/31 01:32:18;;;;;;;51.83;24.80;;;;;;;6.48;85.14;99142.63;5068635;28;20056;-76
2022/03/31 01:34:44;;;;;;;47.58;24.65;;;;;;;6.47;85.26;99135.50;5060960;28;20035;-77
2022/03/31 01:37:09;;;;;;;50.70;25.08;;;;;;;6.47;85.02;99132.75;5078182;28;20020;-77
2022/03/31 01:39:35;;;;;;;51.38;24.38;;;;;;;6.46;85.03;99128.34;5061737;28;20123;-77
2022/03/31 01:42:01;;;;;;;51.92;25.05;;;;;;;6.41;85.46;99124.84;5109054;28;20038;-76
2022/03/31 01:44:27;;;;;;;48.97;24.48;;;;;;;6.39;85.37;99122.38;5067894;28;20027;-76
2022/03/31 01:46:52;;;;;;;51.33;25.15;;;;;;;6.40;85.15;99112.97;5057604;28;20036;-76
2022/03/31 01:49:18;;;;;;;49.75;24.63;;;;;;;6.35;85.12;99112.25;5081649;28;20084;-77
2022/03/31 01:51:43;;;;;;;51.28;24.23;;;;;;;6.34;85.29;99114.19;5118394;28;20046;-76
2022/03/31 01:54:09;;;;;;;51.35;24.65;;;;;;;6.31;85.35;99116.72;5136539;28;20059;-76
2022/03/31 01:56:35;;;;;;;47.42;24.13;;;;;;;6.28;85.53;99120.09;5118126;28;20035;-76
2022/03/31 01:59:00;;;;;;;48.00;23.15;;;;;;;6.28;85.42;99122.84;5097948;28;20032;-76
2022/03/31 02:01:27;;;;;;;49.92;24.67;;;;;;;6.26;85.17;99118.44;5123790;27;20470;-77
2022/03/31 02:03:52;;;;;;;50.53;25.25;;;;;;;6.22;85.14;99119.34;5135183;27;20023;-77
2022/03/31 02:06:17;;;;;;;53.83;25.90;;;;;;;6.17;85.53;99114.72;5113525;27;20028;-76
2022/03/31 02:08:43;;;;;;;52.83;25.45;;;;;;;6.13;85.61;99116.47;5121097;27;20054;-76
2022/03/31 02:11:09;;;;;;;47.80;23.40;;;;;;;6.11;85.63;99112.34;5116823;27;20027;-76
2022/03/31 02:13:35;;;;;;;47.80;24.38;;;;;;;6.08;85.39;99102.75;5104879;28;20039;-77
2022/03/31 02:16:01;;;;;;;49.28;24.77;;;;;;;6.03;85.62;99106.38;5111082;27;20038;-77
2022/03/31 02:18:26;;;;;;;50.28;24.40;;;;;;;6.08;85.38;99101.94;5097871;28;20024;-76
2022/03/31 02:20:52;;;;;;;50.75;25.08;;;;;;;6.00;85.52;99107.00;5101312;28;20077;-77
2022/03/31 02:23:17;;;;;;;48.45;24.33;;;;;;;5.96;85.24;99110.63;5133278;27;20041;-76
2022/03/31 02:25:43;;;;;;;54.67;25.67;;;;;;;5.91;85.31;99106.00;5129625;27;20034;-76
2022/03/31 02:28:09;;;;;;;49.03;25.13;;;;;;;5.88;85.53;99103.00;5126231;27;20386;-76
2022/03/31 02:30:35;;;;;;;48.42;24.55;;;;;;;5.82;85.59;99096.72;5129308;27;20028;-76
2022/03/31 02:33:02;;;;;;;54.03;26.00;;;;;;;5.80;85.72;99099.00;5120461;27;20031;-76
2022/03/31 02:35:28;;;;;;;49.88;25.08;;;;;;;5.80;85.72;99099.00;5114514;27;20035;-76
2022/03/31 02:37:53;;;;;;;50.47;25.90;;;;;;;5.77;85.71;99094.06;5129298;27;20038;-77
2022/03/31 02:40:19;;;;;;;54.17;25.40;;;;;;;5.74;85.53;99089.97;5110136;28;20027;-76
2022/03/31 02:42:44;;;;;;;50.55;25.10;;;;;;;5.70;85.74;99088.91;5114473;28;20035;-77
2022/03/31 02:45:10;;;;;;;48.83;25.17;;;;;;;5.70;85.57;99093.59;5061331;28;20465;-76
2022/03/31 02:47:36;;;;;;;48.05;25.58;;;;;;;5.66;85.68;99093.41;5120194;27;20031;-76
2022/03/31 02:50:02;;;;;;;49.45;24.38;;;;;;;5.63;85.88;99084.88;5129029;27;20035;-77
2022/03/31 02:55:24;;;;;;;47.03;24.83;;;;;;;5.63;85.84;99093.16;5121334;27;20032;-76
2022/03/31 02:55:25;;;;;;;49.55;25.17;;;;;;;5.62;86.08;99097.03;5116708;27;20051;-76
2022/03/31 02:57:52;;;;;;;50.55;24.67;;;;;;;5.62;86.21;99092.31;5080407;28;20411;-76
2022/03/31 03:00:18;;;;;;;55.72;27.48;;;;;;;5.58;87.00;99089.34;5079687;28;20035;-77
2022/03/31 03:02:43;;;;;;;53.90;26.23;;;;;;;5.58;87.01;99092.09;5112993;27;20372;-77
2022/03/31 03:05:09;;;;;;;52.95;26.13;;;;;;;5.62;86.79;99095.09;5090528;27;20026;-76
2022/03/31 03:07:34;;;;;;;56.78;27.55;;;;;;;5.65;87.73;99093.69;5091598;28;20032;-76
2022/03/31 03:10:00;;;;;;;59.85;28.65;;;;;;;5.65;89.38;99094.50;5127599;27;20038;-76
2022/03/31 03:12:25;;;;;;;61.53;28.67;;;;;;;5.63;88.68;99104.16;5127273;27;20043;-77
2022/03/31 03:14:51;;;;;;;58.85;27.77;;;;;;;5.69;88.91;99109.31;5067653;28;20031;-76
2022/03/31 03:17:17;;;;;;;60.03;28.85;;;;;;;5.71;89.90;99103.50;5040671;28;20042;-76
2022/03/31 03:19:43;;;;;;;66.68;31.05;;;;;;;5.79;91.09;99102.84;5118702;28;20038;-76
2022/03/31 03:22:08;;;;;;;59.80;29.38;;;;;;;5.77;89.89;99102.34;5096270;28;20027;-77
2022/03/31 03:24:34;;;;;;;63.10;30.85;;;;;;;5.80;91.52;99094.28;5115069;27;20027;-76
2022/03/31 03:26:59;;;;;;;57.63;30.23;;;;;;;5.86;91.81;99089.53;5128684;27;20027;-77
2022/03/31 03:29:25;;;;;;;63.00;30.45;;;;;;;5.86;92.88;99092.28;5070364;28;20024;-76
2022/03/31 03:31:52;;;;;;;61.85;29.45;;;;;;;5.85;92.96;99093.41;5107067;27;20053;-77
2022/03/31 03:34:18;;;;;;;67.55;33.33;;;;;;;5.88;94.11;99084.56;5106401;27;20081;-77
2022/03/31 03:36:43;;;;;;;58.90;28.25;;;;;;;5.93;92.86;99078.97;5092406;28;20032;-77
2022/03/31 03:39:11;;;;;;;59.92;28.92;;;;;;;5.98;92.27;99069.81;5100488;27;20045;-77
2022/03/31 03:41:37;;;;;;;59.63;29.10;;;;;;;6.03;92.11;99064.22;5076865;27;20042;-77
2022/03/31 03:44:03;;;;;;;53.20;26.67;;;;;;;6.06;92.05;99057.31;5123405;27;20038;-76
2022/03/31 03:46:29;;;;;;;52.80;26.70;;;;;;;6.09;90.97;99057.50;5074110;28;20502;-76
2022/03/31 03:48:55;;;;;;;54.13;26.67;;;;;;;6.11;90.48;99054.47;5100788;27;20027;-77
2022/03/31 03:51:23;;;;;;;52.25;27.65;;;;;;;6.13;89.85;99049.47;5115192;28;20024;-77
2022/03/31 03:53:48;;;;;;;49.13;25.20;;;;;;;6.16;89.81;99059.91;5105730;28;20514;-77
2022/03/31 03:56:16;;;;;;;45.70;23.95;;;;;;;6.19;90.32;99051.03;5078650;28;20024;-77
2022/03/31 03:58:41;;;;;;;45.63;22.60;;;;;;;6.20;90.13;99050.72;5096469;27;20031;-77
2022/03/31 04:01:08;;;;;;;46.20;23.00;;;;;;;6.21;89.70;99051.53;5126122;27;20035;-76
2022/03/31 04:03:33;;;;;;;44.58;21.92;;;;;;;6.22;89.46;99048.50;5106171;27;20031;-76
2022/03/31 04:05:59;;;;;;;44.33;22.05;;;;;;;6.24;89.55;99048.16;5129306;27;20056;-77
2022/03/31 04:08:24;;;;;;;42.88;20.40;;;;;;;6.27;89.38;99050.34;5130221;27;20073;-76
2022/03/31 04:10:50;;;;;;;43.13;20.90;;;;;;;6.27;89.28;99042.09;5107840;27;20080;-76
2022/03/31 04:13:15;;;;;;;39.08;20.52;;;;;;;6.26;89.06;99049.50;5121681;27;20040;-77
2022/03/31 04:15:41;;;;;;;41.17;19.77;;;;;;;6.25;88.89;99039.63;5061163;28;20024;-77
2022/03/31 04:18:08;;;;;;;39.38;19.40;;;;;;;6.28;89.38;99040.13;5080120;28;20023;-77
2022/03/31 04:20:33;;;;;;;42.00;20.38;;;;;;;6.26;88.96;99041.25;5045959;28;20028;-76
2022/03/31 04:22:59;;;;;;;38.28;19.85;;;;;;;6.26;88.79;99043.19;5077449;27;20111;-76
2022/03/31 04:25:24;;;;;;;35.22;19.60;;;;;;;6.29;88.99;99053.59;5057110;28;20491;-76
2022/03/31 04:27:50;;;;;;;37.10;18.98;;;;;;;6.29;89.02;99056.38;5094577;27;20028;-77
2022/03/31 04:30:20;;;;;;;36.42;18.80;;;;;;;6.28;88.87;99054.75;5094102;28;20032;-76
2022/03/31 04:32:46;;;;;;;38.38;19.40;;;;;;;6.26;88.83;99059.72;5106065;28;20051;-77
2022/03/31 04:35:11;;;;;;;36.00;18.63;;;;;;;6.26;88.90;99054.22;5061644;28;20122;-76
2022/03/31 04:37:37;;;;;;;38.53;19.08;;;;;;;6.25;88.79;99061.66;5076146;28;20377;-77
2022/03/31 04:40:04;;;;;;;35.63;17.98;;;;;;;6.26;88.77;99057.78;5116240;28;20028;-76
2022/03/31 04:42:30;;;;;;;36.92;18.60;;;;;;;6.26;88.82;99063.28;5116715;28;20113;-76
2022/03/31 04:44:55;;;;;;;35.72;19.02;;;;;;;6.24;88.67;99059.19;5098431;28;20493;-76
2022/03/31 04:47:21;;;;;;;35.13;18.48;;;;;;;6.25;88.41;99063.63;5119148;28;20536;-76
2022/03/31 04:49:46;;;;;;;34.70;19.42;;;;;;;6.26;89.05;99060.53;5123478;27;20102;-76
2022/03/31 04:52:12;;;;;;;37.28;20.20;;;;;;;6.21;89.67;99071.69;5097070;27;20051;-76
2022/03/31 04:54:43;;;;;;;38.88;20.92;;;;;;;6.14;91.68;99064.91;5127450;27;20047;-76
2022/03/31 04:57:12;;;;;;;37.53;19.58;;;;;;;6.12;90.57;99076.22;5102778;28;20097;-76
2022/03/31 04:59:38;;;;;;;38.83;19.20;;;;;;;6.14;90.80;99062.94;5118939;28;20364;-77
2022/03/31 05:02:04;;;;;;;42.88;22.20;;;;;;;6.14;91.67;99070.41;5105117;28;20080;-76
2022/03/31 05:04:30;;;;;;;43.90;22.67;;;;;;;6.10;90.63;99069.34;5125894;28;20024;-76
2022/03/31 05:06:55;;;;;;;41.47;21.17;;;;;;;6.17;91.30;99070.63;5115864;28;20027;-76
2022/03/31 05:09:21;;;;;;;44.63;22.83;;;;;;;6.18;89.91;99075.00;5118556;28;20077;-76
2022/03/31 05:11:47;;;;;;;42.53;21.48;;;;;;;6.21;89.94;99070.84;5120536;28;20034;-77
2022/03/31 05:14:12;;;;;;;45.05;23.33;;;;;;;6.22;90.01;99067.78;5079716;28;20110;-76
2022/03/31 05:16:38;;;;;;;44.30;22.33;;;;;;;6.23;89.55;99063.09;5100163;28;20532;-77
2022/03/31 05:19:04;;;;;;;44.67;23.77;;;;;;;6.25;89.75;99063.63;5091975;28;20034;-77
2022/03/31 05:21:29;;;;;;;44.50;22.58;;;;;;;6.25;90.05;99067.19;5079781;28;20031;-77
2022/03/31 05:23:55;;;;;;;46.22;22.98;;;;;;;6.24;89.70;99065.56;5125687;28;20034;-77
2022/03/31 05:26:20;;;;;;;42.97;22.05;;;;;;;6.25;89.15;99063.63;5104737;28;20020;-76
2022/03/31 05:28:46;;;;;;;43.85;22.02;;;;;;;6.28;89.29;99067.72;5128348;28;20032;-77
2022/03/31 05:31:11;;;;;;;40.45;21.00;;;;;;;6.25;88.99;99060.84;5116430;28;20027;-77
2022/03/31 05:33:37;;;;;;;40.47;20.80;;;;;;;6.24;88.74;99064.72;5126292;28;20506;-77
2022/03/31 05:36:02;;;;;;;40.88;19.67;;;;;;;6.19;88.38;99062.88;5111783;28;20030;-77
2022/03/31 05:38:28;;;;;;;39.08;21.02;;;;;;;6.13;88.51;99074.25;5129005;27;20041;-77
2022/03/31 05:40:53;;;;;;;40.97;20.30;;;;;;;6.08;88.88;99075.19;5088209;28;20069;-77
2022/03/31 05:43:21;;;;;;;37.45;20.05;;;;;;;6.11;89.09;99074.59;5110760;27;20031;-77
2022/03/31 05:45:47;;;;;;;36.90;19.45;;;;;;;6.09;89.33;99062.22;5095087;28;20024;-77
2022/03/31 05:48:12;;;;;;;34.15;18.60;;;;;;;6.11;89.43;99066.31;5070796;28;20054;-77
2022/03/31 05:50:37;;;;;;;36.30;18.25;;;;;;;6.13;89.33;99068.75;5115554;28;20023;-77
2022/03/31 05:53:03;;;;;;;36.75;17.90;;;;;;;6.02;92.26;99068.13;5065101;28;20020;-76
2022/03/31 05:55:28;;;;;;;31.50;17.08;;;;;;;6.00;92.03;99076.66;5080355;28;20075;-76
2022/03/31 05:57:54;;;;;;;32.65;17.30;;;;;;;5.97;92.45;99076.47;5052527;28;20020;-76
2022/03/31 06:00:20;;;;;;;30.15;16.40;;;;;;;5.96;93.14;99074.81;5096508;28;20027;-77
2022/03/31 06:02:50;;;;;;;34.70;18.23;;;;;;;5.89;97.71;99075.16;5071835;28;20038;-77
2022/03/31 06:05:16;;;;;;;37.72;18.73;;;;;;;5.87;98.84;99071.88;5075020;28;20055;-76
2022/03/31 06:07:42;;;;;;;32.15;16.80;;;;;;;5.90;95.40;99065.75;5101687;28;20030;-76
2022/03/31 06:10:08;;;;;;;31.17;15.20;;;;;;;5.95;94.35;99073.19;5136351;27;20497;-77
2022/03/31 06:12:34;;;;;;;32.88;16.08;;;;;;;5.96;94.98;99075.66;5111377;28;20417;-77
2022/03/31 06:15:00;;;;;;;29.88;15.82;;;;;;;5.98;94.01;99076.13;5081182;28;20078;-77
2022/03/31 06:17:26;;;;;;;32.78;16.65;;;;;;;6.00;94.92;99076.66;5089875;28;20059;-75
2022/03/31 06:19:51;;;;;;;33.63;17.48;;;;;;;6.00;95.52;99076.66;5049695;28;20031;-75
2022/03/31 06:22:17;;;;;;;37.53;17.05;;;;;;;6.03;96.21;99078.00;5051909;28;20024;-78
2022/03/31 06:24:42;;;;;;;34.85;17.38;;;;;;;6.00;99.13;99086.88;5077586;27;20057;-78
2022/03/31 06:27:08;;;;;;;35.85;17.77;;;;;;;5.97;100.00;99081.97;5128019;27;20038;-75
2022/03/31 06:29:34;;;;;;;35.20;17.23;;;;;;;5.99;100.00;99087.97;5056019;28;20047;-78
2022/03/31 06:31:59;;;;;;;33.95;16.60;;;;;;;6.02;98.93;99082.72;5047629;28;20066;-77
2022/03/31 06:34:25;;;;;;;36.35;17.85;;;;;;;6.03;100.00;99094.56;5087588;28;20035;-77
2022/03/31 06:36:51;;;;;;;35.63;17.88;;;;;;;6.03;100.00;99106.38;5072747;28;20020;-76
2022/03/31 06:39:17;;;;;;;30.80;15.95;;;;;;;6.03;100.00;99116.59;5116462;27;20035;-75
2022/03/31 06:41:42;;;;;;;30.10;15.95;;;;;;;6.02;100.00;99118.53;5074832;28;20038;-75
2022/03/31 06:44:08;;;;;;;27.40;14.30;;;;;;;6.01;100.00;99122.41;5083005;28;20015;-75
2022/03/31 06:46:35;;;;;;;26.13;14.05;;;;;;;6.04;100.00;99132.84;5103321;27;20550;-72
2022/03/31 06:49:00;;;;;;;28.38;13.75;;;;;;;6.03;100.00;99122.94;5129526;27;20032;-72
2022/03/31 06:51:26;;;;;;;24.80;13.07;;;;;;;6.08;100.00;99122.03;5074614;28;20051;-73
2022/03/31 06:53:51;;;;;;;27.27;13.77;;;;;;;6.03;100.00;99122.94;5116494;27;20438;-77
2022/03/31 06:56:18;;;;;;;24.00;11.85;;;;;;;6.01;100.00;99122.41;5129724;27;20035;-78
2022/03/31 06:58:44;;;;;;;21.95;11.35;;;;;;;6.02;100.00;99129.56;5082655;28;20032;-80
2022/03/31 07:01:10;;;;;;;23.85;11.90;;;;;;;5.98;100.00;99128.50;5125069;27;20027;-73
2022/03/31 07:03:35;;;;;;;19.85;10.30;;;;;;;6.03;100.00;99127.63;5103248;27;20032;-73
2022/03/31 07:06:01;;;;;;;20.90;12.25;;;;;;;6.03;100.00;99131.19;5105547;28;20038;-72
2022/03/31 07:08:27;;;;;;;21.10;10.73;;;;;;;6.06;100.00;99134.47;5078813;28;20034;-78
2022/03/31 07:10:53;;;;;;;20.25;11.05;;;;;;;6.09;100.00;99139.41;5057477;28;20023;-74
2022/03/31 07:13:18;;;;;;;20.33;10.93;;;;;;;6.06;100.00;99138.06;5134861;27;20029;-74
2022/03/31 07:15:44;;;;;;;15.15;9.20;;;;;;;6.09;100.00;99139.41;5067312;28;20040;-74
2022/03/31 07:18:09;;;;;;;16.55;9.25;;;;;;;6.12;100.00;99145.13;5096803;27;20037;-74
2022/03/31 07:20:36;;;;;;;34.42;19.08;;;;;;;6.13;100.00;99152.28;5125594;27;20028;-74
2022/03/31 07:23:01;;;;;;;20.80;11.88;;;;;;;6.16;100.00;99156.41;5114242;27;20027;-74
2022/03/31 07:25:27;;;;;;;20.35;10.70;;;;;;;6.22;100.00;99152.44;5130289;27;20072;-74
2022/03/31 07:27:53;;;;;;;17.67;9.52;;;;;;;6.24;100.00;99152.94;5101489;27;20031;-74
2022/03/31 07:30:19;;;;;;;14.18;8.63;;;;;;;6.29;100.00;99154.81;5138604;27;20079;-74
2022/03/31 07:32:48;;;;;;;16.73;9.25;;;;;;;6.33;100.00;99159.44;5119621;27;20035;-74
2022/03/31 07:35:13;;;;;;;16.30;8.15;;;;;;;6.36;100.00;99149.75;5108459;27;20038;-73
2022/03/31 07:37:39;;;;;;;15.88;7.40;;;;;;;6.34;100.00;99152.78;5126587;27;20031;-74
2022/03/31 07:40:05;;;;;;;14.98;7.07;;;;;;;6.36;100.00;99149.75;5125125;27;20038;-73
2022/03/31 07:42:30;;;;;;;11.23;6.85;;;;;;;6.31;100.00;99147.88;5124411;27;20055;-73
2022/03/31 07:44:56;;;;;;;9.93;6.55;;;;;;;6.30;100.00;99150.94;5096534;28;20028;-73
2022/03/31 07:47:21;;;;;;;14.75;6.15;;;;;;;6.33;100.00;99145.66;5087662;28;20016;-73
2022/03/31 07:49:49;;;;;;;12.13;5.35;;;;;;;6.36;100.00;99145.06;5126555;27;20482;-73
2022/03/31 07:52:15;;;;;;;9.68;5.32;;;;;;;6.39;99.65;99147.19;5108888;27;20035;-73
2022/03/31 07:54:40;;;;;;;9.35;4.88;;;;;;;6.42;98.79;99149.34;5104879;28;20078;-73
2022/03/31 07:57:06;;;;;;;9.75;5.38;;;;;;;6.43;98.91;99151.00;5102273;28;20032;-73
2022/03/31 07:59:33;;;;;;;8.65;4.78;;;;;;;6.43;98.53;99155.69;5075223;28;20474;-73
2022/03/31 08:02:02;;;;;;;6.13;4.10;;;;;;;6.42;98.45;99154.88;5096141;28;20035;-74
2022/03/31 08:04:28;;;;;;;8.35;4.47;;;;;;;6.44;98.15;99157.34;5105481;28;20080;-74
2022/03/31 08:06:54;;;;;;;9.05;4.55;;;;;;;6.45;98.28;99159.78;5111460;28;20498;-73
2022/03/31 08:09:22;;;;;;;11.45;4.65;;;;;;;6.49;98.90;99165.50;5096781;28;20028;-73
2022/03/31 08:11:49;;;;;;;8.43;4.05;;;;;;;6.51;98.90;99168.81;5082954;28;20031;-74
2022/03/31 08:14:17;;;;;;;9.10;4.82;;;;;;;6.52;98.60;99170.47;5067313;28;20031;-74
2022/03/31 08:16:46;;;;;;;7.95;4.72;;;;;;;6.53;97.62;99168.50;5081135;28;20025;-74
2022/03/31 08:19:12;;;;;;;7.43;4.03;;;;;;;6.58;97.11;99173.97;5095611;28;20043;-74
2022/03/31 08:21:38;;;;;;;7.70;4.10;;;;;;;6.61;96.49;99173.34;5106532;28;20024;-73
2022/03/31 08:24:04;;;;;;;6.55;3.75;;;;;;;6.62;96.58;99174.97;5107099;28;20410;-74
2022/03/31 08:26:29;;;;;;;8.13;4.30;;;;;;;6.67;96.73;99174.91;5081604;28;20026;-74
2022/03/31 08:28:55;;;;;;;9.43;4.00;;;;;;;6.66;96.45;99182.38;5088119;28;20035;-74
2022/03/31 08:31:20;;;;;;;9.02;3.80;;;;;;;6.71;96.47;99184.19;5101875;28;20031;-74
2022/03/31 08:33:46;;;;;;;9.38;4.18;;;;;;;6.75;96.15;99179.75;5115880;28;20032;-74
2022/03/31 08:36:11;;;;;;;7.90;4.63;;;;;;;6.79;96.63;99190.97;5087126;28;20082;-74
2022/03/31 08:38:37;;;;;;;7.65;3.80;;;;;;;6.82;96.57;99187.63;5106786;28;20027;-73
2022/03/31 08:41:03;;;;;;;6.60;3.58;;;;;;;6.88;96.50;99195.53;5101674;28;20456;-74
2022/03/31 08:43:28;;;;;;;5.63;3.92;;;;;;;6.95;95.70;99200.66;5068295;28;20040;-74
2022/03/31 08:45:55;;;;;;;9.93;4.40;;;;;;;6.98;96.11;99196.47;5067805;28;20035;-73
2022/03/31 08:48:24;;;;;;;6.93;4.15;;;;;;;7.00;95.96;99197.00;5105834;28;20034;-74
2022/03/31 08:50:50;;;;;;;8.85;5.70;;;;;;;7.00;95.82;99197.81;5103096;28;20019;-74
2022/03/31 08:53:16;;;;;;;9.77;6.82;;;;;;;6.96;94.78;99204.22;5098458;28;20418;-74
2022/03/31 08:55:41;;;;;;;6.78;4.03;;;;;;;6.90;93.71;99209.00;5089256;28;20044;-74
2022/03/31 08:58:08;;;;;;;5.93;3.70;;;;;;;6.87;93.90;99210.44;5091988;28;20026;-73
2022/03/31 09:00:34;;;;;;;8.63;4.88;;;;;;;6.92;94.27;99213.13;5100106;28;20020;-74
2022/03/31 09:03:01;;;;;;;8.73;5.35;;;;;;;6.93;92.99;99220.25;5104951;28;20031;-74
2022/03/31 09:05:48;;;;;;;6.75;3.60;;;;;;;6.88;93.03;99220.38;5108577;28;20032;-73
2022/03/31 09:08:14;;;;;;;8.43;3.22;;;;;;;6.80;94.50;99222.97;5108618;28;20028;-73
2022/03/31 09:10:44;;;;;;;8.40;3.40;;;;;;;6.80;95.62;99222.97;5081046;28;20039;-73
2022/03/31 09:13:38;;;;;;;5.30;3.42;;;;;;;6.80;94.28;99231.25;5096120;28;20107;-73
2022/03/31 09:16:06;;;;;;;7.63;3.30;;;;;;;6.70;94.57;99230.28;5090066;28;20041;-73
2022/03/31 09:18:34;;;;;;;5.93;3.28;;;;;;;6.64;95.52;99233.44;5096388;28;20040;-73
2022/03/31 09:21:03;;;;;;;4.55;3.38;;;;;;;6.70;96.81;99240.50;5082156;28;20029;-73
2022/03/31 09:23:31;;;;;;;4.88;3.10;;;;;;;6.67;97.50;99241.13;5089399;28;20028;-73
2022/03/31 09:26:05;;;;;;;8.30;4.30;;;;;;;6.65;97.31;99248.88;5107758;28;20034;-73
2022/03/31 09:28:31;;;;;;;5.78;3.25;;;;;;;6.64;98.15;99261.84;5113705;28;20032;-73
2022/03/31 09:30:57;;;;;;;6.65;3.35;;;;;;;6.56;98.93;99264.47;5106525;28;20032;-74
2022/03/31 09:33:34;;;;;;;7.30;3.05;;;;;;;6.47;99.66;99272.59;5105288;28;20035;-75
2022/03/31 09:36:05;;;;;;;5.75;3.00;;;;;;;6.37;99.88;99273.53;5105464;28;20510;-74
2022/03/31 09:38:35;;;;;;;6.22;3.63;;;;;;;6.36;100.00;99273.84;5110147;28;20032;-75
2022/03/31 09:41:03;;;;;;;4.75;3.35;;;;;;;6.29;100.00;99282.47;5103711;28;20071;-74
2022/03/31 09:43:37;;;;;;;6.03;2.72;;;;;;;6.23;100.00;99295.50;5109762;28;20130;-73
2022/03/31 09:46:02;;;;;;;4.35;1.67;;;;;;;6.06;100.00;99305.38;5110540;28;20019;-74
2022/03/31 09:48:28;;;;;;;3.33;0.98;;;;;;;5.94;99.44;99301.09;5112450;28;20089;-74
2022/03/31 09:50:53;;;;;;;2.40;1.05;;;;;;;5.84;100.00;99306.66;5106505;28;20468;-74
2022/03/31 09:53:22;;;;;;;0.90;0.80;;;;;;;5.80;100.00;99309.19;5108073;28;20023;-75
2022/03/31 09:55:48;;;;;;;2.55;1.20;;;;;;;5.62;100.00;99318.19;5087798;28;20536;-74
2022/03/31 09:58:22;;;;;;;1.27;0.68;;;;;;;5.47;100.00;99330.19;5099808;28;20031;-74
2022/03/31 10:00:48;;;;;;;1.50;0.70;;;;;;;5.46;100.00;99330.44;5085797;28;20035;-74
2022/03/31 10:03:14;;;;;;;1.35;0.70;;;;;;;5.37;100.00;99344.03;5113979;28;20038;-74
2022/03/31 10:05:42;;;;;;;0.45;0.40;;;;;;;5.29;100.00;99342.72;5099395;28;20020;-73
2022/03/31 10:08:10;;;;;;;0.52;0.50;;;;;;;5.20;100.00;99341.69;5087082;28;20027;-74
2022/03/31 10:10:36;;;;;;;1.42;0.60;;;;;;;5.17;100.00;99344.19;5086613;28;20031;-73
2022/03/31 10:13:13;;;;;;;0.98;0.60;;;;;;;5.10;100.00;99361.03;5104229;28;20032;-73
2022/03/31 10:15:39;;;;;;;2.80;0.70;;;;;;;5.09;100.00;99349.19;5074477;28;20045;-73
2022/03/31 10:18:04;;;;;;;1.35;0.77;;;;;;;5.17;100.00;99364.28;5042224;28;20032;-73
2022/03/31 10:20:30;;;;;;;3.08;1.20;;;;;;;5.13;100.00;99366.78;5064423;28;20020;-73
2022/03/31 10:25:45;;;;;;;3.17;1.50;;;;;;;5.14;100.00;99373.94;5068029;28;20028;-73
2022/03/31 10:28:12;;;;;;;4.82;0.98;;;;;;;5.07;100.00;99383.59;5082945;28;20032;-74
2022/03/31 10:30:38;;;;;;;1.50;1.00;;;;;;;5.04;100.00;99378.66;5080906;28;20434;-74
2022/03/31 10:33:05;;;;;;;4.22;2.97;;;;;;;5.04;100.00;99396.03;5115372;28;20038;-75
2022/03/31 10:35:39;;;;;;;4.30;1.58;;;;;;;5.09;100.00;99393.22;5060045;28;20021;-76
2022/03/31 10:38:12;;;;;;;1.67;0.88;;;;;;;4.95;100.00;99394.16;5066080;28;20054;-72
2022/03/31 10:40:40;;;;;;;3.95;1.67;;;;;;;4.95;100.00;99416.97;5048889;28;20032;-74
2022/03/31 10:43:06;;;;;;;1.80;0.90;;;;;;;4.84;100.00;99410.69;5069763;28;20129;-73
2022/03/31 10:45:39;;;;;;;2.55;1.00;;;;;;;4.79;100.00;99409.91;5068271;28;20484;-72
2022/03/31 10:48:13;;;;;;;2.22;1.10;;;;;;;4.80;100.00;99411.56;5047324;28;20498;-73
2022/03/31 10:50:39;;;;;;;1.20;1.00;;;;;;;4.85;100.00;99414.28;5047341;28;20028;-75
2022/03/31 10:53:04;;;;;;;2.42;0.93;;;;;;;4.73;100.00;99413.78;5060849;28;20032;-74
2022/03/31 10:55:41;;;;;;;3.63;1.15;;;;;;;4.67;100.00;99422.06;5063491;28;20454;-73
2022/03/31 10:58:06;;;;;;;2.42;1.30;;;;;;;4.70;100.00;99429.75;5080777;28;20024;-73
2022/03/31 11:00:32;;;;;;;1.25;0.95;;;;;;;4.61;100.00;99425.94;5080187;28;20061;-74
2022/03/31 11:02:57;;;;;;;2.45;1.70;;;;;;;4.61;100.00;99428.69;5049317;28;20032;-74
2022/03/31 11:05:23;;;;;;;4.78;1.50;;;;;;;4.57;100.00;99432.28;5066435;28;20031;-73
2022/03/31 11:07:49;;;;;;;2.53;1.70;;;;;;;4.52;100.00;99424.88;5097987;28;20032;-73
2022/03/31 11:10:17;;;;;;;2.88;1.92;;;;;;;4.51;100.00;99439.72;5097780;28;20026;-73
2022/03/31 11:12:42;;;;;;;2.85;2.10;;;;;;;4.50;100.00;99431.75;5098176;28;20032;-73
2022/03/31 11:15:10;;;;;;;3.40;1.70;;;;;;;4.38;100.00;99429.34;5095059;28;20051;-73
2022/03/31 11:17:36;;;;;;;3.25;1.50;;;;;;;4.32;100.00;99431.28;5066571;28;20101;-74
2022/03/31 11:20:13;;;;;;;2.83;1.50;;;;;;;4.30;100.00;99435.41;5078700;28;20030;-74
2022/03/31 11:22:38;;;;;;;2.08;1.30;;;;;;;4.29;100.00;99447.47;5081347;28;20035;-74
2022/03/31 11:25:10;;;;;;;6.05;1.38;;;;;;;4.32;100.00;99455.16;5097619;28;20028;-76
2022/03/31 11:27:37;;;;;;;3.90;1.57;;;;;;;4.32;100.00;99444.16;5047832;28;20024;-73
2022/03/31 11:30:13;;;;;;;2.60;1.30;;;;;;;4.31;100.00;99453.53;5050534;28;20043;-75